sensor_id;sensor_type;location;lat;lon;timestamp;temperature;humidity
16321;DHT22;8269;50.990;4.494;2022-08-03T00:02:25;21.20;97.30
16321;DHT22;8269;50.990;4.494;2022-08-03T00:04:51;21.10;97.20
16321;DHT22;8269;50.990;4.494;2022-08-03T00:07:16;21.10;97.20
16321;DHT22;8269;50.990;4.494;2022-08-03T00:09:42;21.20;97.10
16321;DHT22;8269;50.990;4.494;2022-08-03T00:12:08;21.10;97.00
16321;DHT22;8269;50.990;4.494;2022-08-03T00:14:34;21.20;97.20
16321;DHT22;8269;50.990;4.494;2022-08-03T00:17:00;21.10;97.00
16321;DHT22;8269;50.990;4.494;2022-08-03T00:19:26;21.00;97.00
16321;DHT22;8269;50.990;4.494;2022-08-03T00:21:53;21.00;97.10
16321;DHT22;8269;50.990;4.494;2022-08-03T00:24:18;21.00;97.30
16321;DHT22;8269;50.990;4.494;2022-08-03T00:26:44;20.90;97.40
16321;DHT22;8269;50.990;4.494;2022-08-03T00:29:10;20.90;97.40
16321;DHT22;8269;50.990;4.494;2022-08-03T00:31:35;20.80;97.50
16321;DHT22;8269;50.990;4.494;2022-08-03T00:34:01;20.80;97.50
16321;DHT22;8269;50.990;4.494;2022-08-03T00:36:27;20.80;97.30
16321;DHT22;8269;50.990;4.494;2022-08-03T00:38:54;20.80;96.90
16321;DHT22;8269;50.990;4.494;2022-08-03T00:41:20;20.90;96.60
16321;DHT22;8269;50.990;4.494;2022-08-03T00:43:46;20.80;96.30
16321;DHT22;8269;50.990;4.494;2022-08-03T00:46:12;20.80;96.30
16321;DHT22;8269;50.990;4.494;2022-08-03T00:48:38;20.90;96.30
16321;DHT22;8269;50.990;4.494;2022-08-03T00:51:04;20.90;96.00
16321;DHT22;8269;50.990;4.494;2022-08-03T00:53:30;20.90;95.90
16321;DHT22;8269;50.990;4.494;2022-08-03T00:55:56;20.90;95.80
16321;DHT22;8269;50.990;4.494;2022-08-03T00:58:22;20.90;95.80
16321;DHT22;8269;50.990;4.494;2022-08-03T01:00:48;20.80;95.60
16321;DHT22;8269;50.990;4.494;2022-08-03T01:03:14;20.80;95.70
16321;DHT22;8269;50.990;4.494;2022-08-03T01:06:58;20.70;95.90
16321;DHT22;8269;50.990;4.494;2022-08-03T01:14:16;20.40;96.60
16321;DHT22;8269;50.990;4.494;2022-08-03T01:17:04;20.40;96.70
16321;DHT22;8269;50.990;4.494;2022-08-03T01:30:52;20.30;97.00
16321;DHT22;8269;50.990;4.494;2022-08-03T01:33:23;20.30;97.00
16321;DHT22;8269;50.990;4.494;2022-08-03T01:35:57;20.30;96.80
16321;DHT22;8269;50.990;4.494;2022-08-03T01:38:35;20.30;97.00
16321;DHT22;8269;50.990;4.494;2022-08-03T01:41:11;20.20;97.00
16321;DHT22;8269;50.990;4.494;2022-08-03T01:43:40;20.20;97.10
16321;DHT22;8269;50.990;4.494;2022-08-03T01:46:07;20.20;97.20
16321;DHT22;8269;50.990;4.494;2022-08-03T01:48:37;20.20;97.30
16321;DHT22;8269;50.990;4.494;2022-08-03T01:51:05;20.10;97.20
16321;DHT22;8269;50.990;4.494;2022-08-03T01:53:32;20.10;97.30
16321;DHT22;8269;50.990;4.494;2022-08-03T01:56:00;20.00;97.40
16321;DHT22;8269;50.990;4.494;2022-08-03T01:58:28;20.00;97.60
16321;DHT22;8269;50.990;4.494;2022-08-03T02:00:56;19.90;97.70
16321;DHT22;8269;50.990;4.494;2022-08-03T02:03:26;19.90;97.90
16321;DHT22;8269;50.990;4.494;2022-08-03T02:05:54;19.80;97.90
16321;DHT22;8269;50.990;4.494;2022-08-03T02:08:21;19.70;98.10
16321;DHT22;8269;50.990;4.494;2022-08-03T02:10:49;19.70;98.20
16321;DHT22;8269;50.990;4.494;2022-08-03T02:13:16;19.70;98.20
16321;DHT22;8269;50.990;4.494;2022-08-03T02:15:43;19.70;98.40
16321;DHT22;8269;50.990;4.494;2022-08-03T02:18:10;19.70;98.50
16321;DHT22;8269;50.990;4.494;2022-08-03T02:20:39;19.70;98.40
16321;DHT22;8269;50.990;4.494;2022-08-03T02:23:06;19.70;98.40
16321;DHT22;8269;50.990;4.494;2022-08-03T02:25:36;19.70;98.50
16321;DHT22;8269;50.990;4.494;2022-08-03T02:28:18;19.60;98.50
16321;DHT22;8269;50.990;4.494;2022-08-03T02:30:48;19.60;98.80
16321;DHT22;8269;50.990;4.494;2022-08-03T02:33:20;19.70;98.90
16321;DHT22;8269;50.990;4.494;2022-08-03T02:35:50;19.70;98.80
16321;DHT22;8269;50.990;4.494;2022-08-03T02:38:20;19.70;98.80
16321;DHT22;8269;50.990;4.494;2022-08-03T02:40:48;19.60;98.80
16321;DHT22;8269;50.990;4.494;2022-08-03T02:43:18;19.50;99.00
16321;DHT22;8269;50.990;4.494;2022-08-03T02:45:47;19.40;99.30
16321;DHT22;8269;50.990;4.494;2022-08-03T02:48:27;19.40;99.50
16321;DHT22;8269;50.990;4.494;2022-08-03T02:50:56;19.30;99.50
16321;DHT22;8269;50.990;4.494;2022-08-03T02:53:23;19.20;99.80
16321;DHT22;8269;50.990;4.494;2022-08-03T02:55:49;19.20;99.70
16321;DHT22;8269;50.990;4.494;2022-08-03T02:58:18;19.20;99.90
16321;DHT22;8269;50.990;4.494;2022-08-03T03:00:48;19.20;99.90
16321;DHT22;8269;50.990;4.494;2022-08-03T03:03:17;19.20;99.90
16321;DHT22;8269;50.990;4.494;2022-08-03T03:05:44;19.20;99.90
16321;DHT22;8269;50.990;4.494;2022-08-03T03:08:16;19.20;99.90
16321;DHT22;8269;50.990;4.494;2022-08-03T03:10:43;19.10;99.90
16321;DHT22;8269;50.990;4.494;2022-08-03T03:13:10;19.00;99.90
16321;DHT22;8269;50.990;4.494;2022-08-03T03:15:38;18.90;99.90
16321;DHT22;8269;50.990;4.494;2022-08-03T03:18:04;18.90;99.90
16321;DHT22;8269;50.990;4.494;2022-08-03T03:20:32;18.90;99.90
16321;DHT22;8269;50.990;4.494;2022-08-03T03:23:00;18.80;99.90
16321;DHT22;8269;50.990;4.494;2022-08-03T03:25:29;18.80;99.90
16321;DHT22;8269;50.990;4.494;2022-08-03T03:27:56;18.80;99.90
16321;DHT22;8269;50.990;4.494;2022-08-03T03:30:21;18.80;99.90
16321;DHT22;8269;50.990;4.494;2022-08-03T03:32:47;18.70;99.90
16321;DHT22;8269;50.990;4.494;2022-08-03T03:35:13;18.50;99.90
16321;DHT22;8269;50.990;4.494;2022-08-03T03:37:39;18.50;99.90
16321;DHT22;8269;50.990;4.494;2022-08-03T03:40:05;18.50;99.90
16321;DHT22;8269;50.990;4.494;2022-08-03T03:42:33;18.40;99.90
16321;DHT22;8269;50.990;4.494;2022-08-03T03:45:02;18.40;99.90
16321;DHT22;8269;50.990;4.494;2022-08-03T03:47:28;18.30;99.90
16321;DHT22;8269;50.990;4.494;2022-08-03T03:49:56;18.30;99.90
16321;DHT22;8269;50.990;4.494;2022-08-03T03:52:22;18.40;99.90
16321;DHT22;8269;50.990;4.494;2022-08-03T03:54:47;18.30;99.90
16321;DHT22;8269;50.990;4.494;2022-08-03T03:57:13;18.30;99.90
16321;DHT22;8269;50.990;4.494;2022-08-03T03:59:40;18.40;99.90
16321;DHT22;8269;50.990;4.494;2022-08-03T04:02:07;18.40;99.90
16321;DHT22;8269;50.990;4.494;2022-08-03T04:04:34;18.20;99.90
16321;DHT22;8269;50.990;4.494;2022-08-03T04:07:24;18.20;99.90
16321;DHT22;8269;50.990;4.494;2022-08-03T04:10:16;18.20;99.90
16321;DHT22;8269;50.990;4.494;2022-08-03T04:13:04;18.10;99.90
16321;DHT22;8269;50.990;4.494;2022-08-03T04:15:32;18.20;99.90
16321;DHT22;8269;50.990;4.494;2022-08-03T04:17:58;18.30;99.90
16321;DHT22;8269;50.990;4.494;2022-08-03T04:20:28;18.30;99.90
16321;DHT22;8269;50.990;4.494;2022-08-03T04:22:55;18.30;99.90
16321;DHT22;8269;50.990;4.494;2022-08-03T04:25:25;18.20;99.90
16321;DHT22;8269;50.990;4.494;2022-08-03T04:27:52;18.20;99.90
16321;DHT22;8269;50.990;4.494;2022-08-03T04:30:21;18.20;99.90
16321;DHT22;8269;50.990;4.494;2022-08-03T04:32:48;18.20;99.90
16321;DHT22;8269;50.990;4.494;2022-08-03T04:35:17;18.20;99.90
16321;DHT22;8269;50.990;4.494;2022-08-03T04:37:45;18.20;99.90
16321;DHT22;8269;50.990;4.494;2022-08-03T04:40:21;18.20;99.90
16321;DHT22;8269;50.990;4.494;2022-08-03T04:42:48;18.10;99.90
16321;DHT22;8269;50.990;4.494;2022-08-03T04:45:15;18.20;99.90
16321;DHT22;8269;50.990;4.494;2022-08-03T04:47:41;18.30;99.90
16321;DHT22;8269;50.990;4.494;2022-08-03T04:50:08;18.50;99.90
16321;DHT22;8269;50.990;4.494;2022-08-03T04:52:34;18.80;99.90
16321;DHT22;8269;50.990;4.494;2022-08-03T04:55:00;19.20;99.90
16321;DHT22;8269;50.990;4.494;2022-08-03T04:57:26;19.60;99.90
16321;DHT22;8269;50.990;4.494;2022-08-03T04:59:53;20.10;99.20
16321;DHT22;8269;50.990;4.494;2022-08-03T05:02:20;20.50;97.20
16321;DHT22;8269;50.990;4.494;2022-08-03T05:04:46;20.70;96.50
16321;DHT22;8269;50.990;4.494;2022-08-03T05:07:12;20.90;95.70
16321;DHT22;8269;50.990;4.494;2022-08-03T05:09:38;21.30;95.80
16321;DHT22;8269;50.990;4.494;2022-08-03T05:12:05;21.60;93.90
16321;DHT22;8269;50.990;4.494;2022-08-03T05:14:33;21.80;93.60
16321;DHT22;8269;50.990;4.494;2022-08-03T05:16:58;21.90;92.50
16321;DHT22;8269;50.990;4.494;2022-08-03T05:19:24;22.00;92.30
16321;DHT22;8269;50.990;4.494;2022-08-03T05:21:50;22.40;91.90
16321;DHT22;8269;50.990;4.494;2022-08-03T05:24:15;22.80;90.60
16321;DHT22;8269;50.990;4.494;2022-08-03T05:26:41;23.10;89.70
16321;DHT22;8269;50.990;4.494;2022-08-03T05:29:07;23.70;87.00
16321;DHT22;8269;50.990;4.494;2022-08-03T05:31:32;23.90;84.70
16321;DHT22;8269;50.990;4.494;2022-08-03T05:33:58;24.10;83.20
16321;DHT22;8269;50.990;4.494;2022-08-03T05:36:24;24.20;81.00
16321;DHT22;8269;50.990;4.494;2022-08-03T05:38:49;24.30;82.70
16321;DHT22;8269;50.990;4.494;2022-08-03T05:41:15;24.70;80.00
16321;DHT22;8269;50.990;4.494;2022-08-03T05:43:41;24.80;78.40
16321;DHT22;8269;50.990;4.494;2022-08-03T05:46:07;24.90;77.50
16321;DHT22;8269;50.990;4.494;2022-08-03T05:48:32;25.10;76.10
16321;DHT22;8269;50.990;4.494;2022-08-03T05:50:58;25.30;75.50
16321;DHT22;8269;50.990;4.494;2022-08-03T05:53:23;25.40;75.30
16321;DHT22;8269;50.990;4.494;2022-08-03T05:55:50;25.70;74.90
16321;DHT22;8269;50.990;4.494;2022-08-03T05:58:16;25.70;73.30
16321;DHT22;8269;50.990;4.494;2022-08-03T06:00:42;26.20;72.90
16321;DHT22;8269;50.990;4.494;2022-08-03T06:03:07;26.50;70.90
16321;DHT22;8269;50.990;4.494;2022-08-03T06:05:33;26.60;70.40
16321;DHT22;8269;50.990;4.494;2022-08-03T06:08:01;26.50;69.70
16321;DHT22;8269;50.990;4.494;2022-08-03T06:10:27;26.50;69.90
16321;DHT22;8269;50.990;4.494;2022-08-03T06:12:53;26.70;69.00
16321;DHT22;8269;50.990;4.494;2022-08-03T06:15:18;26.80;68.80
16321;DHT22;8269;50.990;4.494;2022-08-03T06:17:46;26.80;68.90
16321;DHT22;8269;50.990;4.494;2022-08-03T06:20:12;27.00;67.80
16321;DHT22;8269;50.990;4.494;2022-08-03T06:22:38;27.40;67.40
16321;DHT22;8269;50.990;4.494;2022-08-03T06:25:04;27.70;65.40
16321;DHT22;8269;50.990;4.494;2022-08-03T06:27:30;27.70;65.50
16321;DHT22;8269;50.990;4.494;2022-08-03T06:29:56;28.20;64.00
16321;DHT22;8269;50.990;4.494;2022-08-03T06:32:21;28.00;64.20
16321;DHT22;8269;50.990;4.494;2022-08-03T06:34:47;28.00;63.70
16321;DHT22;8269;50.990;4.494;2022-08-03T06:37:13;27.90;63.60
16321;DHT22;8269;50.990;4.494;2022-08-03T06:39:39;27.80;64.00
16321;DHT22;8269;50.990;4.494;2022-08-03T06:42:05;27.40;65.30
16321;DHT22;8269;50.990;4.494;2022-08-03T06:44:30;27.30;65.30
16321;DHT22;8269;50.990;4.494;2022-08-03T06:46:56;27.40;65.10
16321;DHT22;8269;50.990;4.494;2022-08-03T06:49:23;27.90;65.00
16321;DHT22;8269;50.990;4.494;2022-08-03T06:51:49;28.30;63.20
16321;DHT22;8269;50.990;4.494;2022-08-03T06:54:17;28.40;62.20
16321;DHT22;8269;50.990;4.494;2022-08-03T06:56:42;28.20;61.20
16321;DHT22;8269;50.990;4.494;2022-08-03T06:59:08;28.30;60.10
16321;DHT22;8269;50.990;4.494;2022-08-03T07:01:34;28.10;60.30
16321;DHT22;8269;50.990;4.494;2022-08-03T07:03:59;28.10;60.00
16321;DHT22;8269;50.990;4.494;2022-08-03T07:06:25;28.40;60.10
16321;DHT22;8269;50.990;4.494;2022-08-03T07:08:51;28.80;59.40
16321;DHT22;8269;50.990;4.494;2022-08-03T07:11:16;29.00;57.70
16321;DHT22;8269;50.990;4.494;2022-08-03T07:13:42;29.20;58.20
16321;DHT22;8269;50.990;4.494;2022-08-03T07:16:08;29.30;57.20
16321;DHT22;8269;50.990;4.494;2022-08-03T07:18:37;29.40;56.50
16321;DHT22;8269;50.990;4.494;2022-08-03T07:21:03;29.10;57.00
16321;DHT22;8269;50.990;4.494;2022-08-03T07:23:29;29.60;56.80
16321;DHT22;8269;50.990;4.494;2022-08-03T07:25:54;29.70;55.70
16321;DHT22;8269;50.990;4.494;2022-08-03T07:28:20;29.60;55.60
16321;DHT22;8269;50.990;4.494;2022-08-03T07:30:46;29.80;54.90
16321;DHT22;8269;50.990;4.494;2022-08-03T07:33:12;29.60;54.60
16321;DHT22;8269;50.990;4.494;2022-08-03T07:35:38;29.60;54.90
16321;DHT22;8269;50.990;4.494;2022-08-03T07:38:04;29.10;55.60
16321;DHT22;8269;50.990;4.494;2022-08-03T07:40:29;28.70;56.50
16321;DHT22;8269;50.990;4.494;2022-08-03T07:42:55;28.70;57.20
16321;DHT22;8269;50.990;4.494;2022-08-03T07:45:20;28.80;57.30
16321;DHT22;8269;50.990;4.494;2022-08-03T07:47:47;29.10;56.80
16321;DHT22;8269;50.990;4.494;2022-08-03T07:50:13;29.40;56.10
16321;DHT22;8269;50.990;4.494;2022-08-03T07:52:39;29.60;55.40
16321;DHT22;8269;50.990;4.494;2022-08-03T07:55:18;29.80;54.50
16321;DHT22;8269;50.990;4.494;2022-08-03T07:57:44;29.80;54.70
16321;DHT22;8269;50.990;4.494;2022-08-03T08:00:16;29.90;54.80
16321;DHT22;8269;50.990;4.494;2022-08-03T08:02:42;30.30;53.50
16321;DHT22;8269;50.990;4.494;2022-08-03T08:05:09;30.20;53.40
16321;DHT22;8269;50.990;4.494;2022-08-03T08:07:35;29.90;54.00
16321;DHT22;8269;50.990;4.494;2022-08-03T08:10:06;30.00;54.20
16321;DHT22;8269;50.990;4.494;2022-08-03T08:12:32;30.00;54.00
16321;DHT22;8269;50.990;4.494;2022-08-03T08:14:57;30.40;53.40
16321;DHT22;8269;50.990;4.494;2022-08-03T08:17:23;30.30;53.00
16321;DHT22;8269;50.990;4.494;2022-08-03T08:19:49;30.40;52.90
16321;DHT22;8269;50.990;4.494;2022-08-03T08:22:14;30.30;53.50
16321;DHT22;8269;50.990;4.494;2022-08-03T08:24:40;31.10;53.20
16321;DHT22;8269;50.990;4.494;2022-08-03T08:27:08;31.20;51.00
16321;DHT22;8269;50.990;4.494;2022-08-03T08:29:33;31.10;50.60
16321;DHT22;8269;50.990;4.494;2022-08-03T08:31:59;31.10;51.00
16321;DHT22;8269;50.990;4.494;2022-08-03T08:34:25;31.50;50.00
16321;DHT22;8269;50.990;4.494;2022-08-03T08:36:50;31.30;49.40
16321;DHT22;8269;50.990;4.494;2022-08-03T08:39:16;31.20;49.80
16321;DHT22;8269;50.990;4.494;2022-08-03T08:41:41;31.30;49.70
16321;DHT22;8269;50.990;4.494;2022-08-03T08:44:07;31.50;50.10
16321;DHT22;8269;50.990;4.494;2022-08-03T08:46:34;31.50;49.70
16321;DHT22;8269;50.990;4.494;2022-08-03T08:49:02;31.70;49.30
16321;DHT22;8269;50.990;4.494;2022-08-03T08:51:30;32.00;48.50
16321;DHT22;8269;50.990;4.494;2022-08-03T08:54:00;32.50;47.20
16321;DHT22;8269;50.990;4.494;2022-08-03T08:56:27;32.40;47.40
16321;DHT22;8269;50.990;4.494;2022-08-03T08:58:59;32.30;47.60
16321;DHT22;8269;50.990;4.494;2022-08-03T09:01:26;32.40;47.60
16321;DHT22;8269;50.990;4.494;2022-08-03T09:03:52;32.60;46.80
16321;DHT22;8269;50.990;4.494;2022-08-03T09:06:19;32.40;46.80
16321;DHT22;8269;50.990;4.494;2022-08-03T09:08:45;32.40;46.70
16321;DHT22;8269;50.990;4.494;2022-08-03T09:11:11;32.40;46.90
16321;DHT22;8269;50.990;4.494;2022-08-03T09:13:37;32.40;46.10
16321;DHT22;8269;50.990;4.494;2022-08-03T09:16:09;32.10;46.60
16321;DHT22;8269;50.990;4.494;2022-08-03T09:18:36;32.40;46.70
16321;DHT22;8269;50.990;4.494;2022-08-03T09:21:27;32.90;45.40
16321;DHT22;8269;50.990;4.494;2022-08-03T09:23:56;32.40;45.80
16321;DHT22;8269;50.990;4.494;2022-08-03T09:26:27;32.00;46.60
16321;DHT22;8269;50.990;4.494;2022-08-03T09:28:58;31.90;46.90
16321;DHT22;8269;50.990;4.494;2022-08-03T09:31:39;32.00;46.80
16321;DHT22;8269;50.990;4.494;2022-08-03T09:34:09;32.20;46.40
16321;DHT22;8269;50.990;4.494;2022-08-03T09:36:42;32.40;46.80
16321;DHT22;8269;50.990;4.494;2022-08-03T09:39:19;32.30;46.00
16321;DHT22;8269;50.990;4.494;2022-08-03T09:41:48;31.90;46.60
16321;DHT22;8269;50.990;4.494;2022-08-03T09:44:14;31.50;47.40
16321;DHT22;8269;50.990;4.494;2022-08-03T09:46:51;31.40;48.70
16321;DHT22;8269;50.990;4.494;2022-08-03T09:49:18;31.30;48.60
16321;DHT22;8269;50.990;4.494;2022-08-03T09:51:44;31.20;48.90
16321;DHT22;8269;50.990;4.494;2022-08-03T09:54:09;31.30;48.20
16321;DHT22;8269;50.990;4.494;2022-08-03T09:56:43;31.10;48.50
16321;DHT22;8269;50.990;4.494;2022-08-03T09:59:10;31.10;48.70
16321;DHT22;8269;50.990;4.494;2022-08-03T10:01:37;31.10;49.10
16321;DHT22;8269;50.990;4.494;2022-08-03T10:04:11;30.90;48.90
16321;DHT22;8269;50.990;4.494;2022-08-03T10:06:38;30.70;49.50
16321;DHT22;8269;50.990;4.494;2022-08-03T10:09:16;30.70;50.10
16321;DHT22;8269;50.990;4.494;2022-08-03T10:11:43;30.90;49.80
16321;DHT22;8269;50.990;4.494;2022-08-03T10:14:12;31.00;50.00
16321;DHT22;8269;50.990;4.494;2022-08-03T10:16:44;30.90;50.00
16321;DHT22;8269;50.990;4.494;2022-08-03T10:19:11;30.90;50.40
16321;DHT22;8269;50.990;4.494;2022-08-03T10:21:40;31.00;50.10
16321;DHT22;8269;50.990;4.494;2022-08-03T10:24:08;31.10;50.20
16321;DHT22;8269;50.990;4.494;2022-08-03T10:26:37;31.20;49.70
16321;DHT22;8269;50.990;4.494;2022-08-03T10:29:06;31.20;49.60
16321;DHT22;8269;50.990;4.494;2022-08-03T10:31:40;31.20;49.30
16321;DHT22;8269;50.990;4.494;2022-08-03T10:34:12;31.20;49.50
16321;DHT22;8269;50.990;4.494;2022-08-03T10:36:40;31.30;48.60
16321;DHT22;8269;50.990;4.494;2022-08-03T10:39:07;31.40;48.50
16321;DHT22;8269;50.990;4.494;2022-08-03T10:41:40;31.50;48.50
16321;DHT22;8269;50.990;4.494;2022-08-03T10:44:13;31.70;48.30
16321;DHT22;8269;50.990;4.494;2022-08-03T10:46:42;31.70;47.20
16321;DHT22;8269;50.990;4.494;2022-08-03T10:49:15;31.70;47.80
16321;DHT22;8269;50.990;4.494;2022-08-03T10:51:45;31.60;47.70
16321;DHT22;8269;50.990;4.494;2022-08-03T10:54:46;31.50;48.10
16321;DHT22;8269;50.990;4.494;2022-08-03T10:57:48;31.60;47.90
16321;DHT22;8269;50.990;4.494;2022-08-03T11:00:16;31.50;47.90
16321;DHT22;8269;50.990;4.494;2022-08-03T11:03:04;31.50;48.00
16321;DHT22;8269;50.990;4.494;2022-08-03T11:05:33;31.60;48.20
16321;DHT22;8269;50.990;4.494;2022-08-03T11:10:44;31.60;48.10
16321;DHT22;8269;50.990;4.494;2022-08-03T11:13:16;31.60;47.90
16321;DHT22;8269;50.990;4.494;2022-08-03T11:15:47;31.50;47.60
16321;DHT22;8269;50.990;4.494;2022-08-03T11:18:14;31.50;47.90
16321;DHT22;8269;50.990;4.494;2022-08-03T11:20:48;31.40;47.70
16321;DHT22;8269;50.990;4.494;2022-08-03T11:23:16;31.20;48.10
16321;DHT22;8269;50.990;4.494;2022-08-03T11:26:08;31.10;48.80
16321;DHT22;8269;50.990;4.494;2022-08-03T11:28:34;31.30;48.30
16321;DHT22;8269;50.990;4.494;2022-08-03T11:34:09;31.60;47.90
16321;DHT22;8269;50.990;4.494;2022-08-03T11:39:43;31.70;47.20
16321;DHT22;8269;50.990;4.494;2022-08-03T11:44:49;31.80;48.30
16321;DHT22;8269;50.990;4.494;2022-08-03T11:47:16;32.00;47.70
16321;DHT22;8269;50.990;4.494;2022-08-03T11:49:48;32.00;46.10
16321;DHT22;8269;50.990;4.494;2022-08-03T11:52:15;32.00;46.20
16321;DHT22;8269;50.990;4.494;2022-08-03T11:54:42;31.90;46.30
16321;DHT22;8269;50.990;4.494;2022-08-03T11:57:08;31.90;46.60
16321;DHT22;8269;50.990;4.494;2022-08-03T11:59:34;31.90;47.50
16321;DHT22;8269;50.990;4.494;2022-08-03T12:02:12;31.90;46.60
16321;DHT22;8269;50.990;4.494;2022-08-03T12:04:57;31.90;46.70
16321;DHT22;8269;50.990;4.494;2022-08-03T12:07:25;32.20;45.40
16321;DHT22;8269;50.990;4.494;2022-08-03T12:10:10;32.30;45.10
16321;DHT22;8269;50.990;4.494;2022-08-03T12:12:38;32.30;44.70
16321;DHT22;8269;50.990;4.494;2022-08-03T12:15:04;32.40;44.70
16321;DHT22;8269;50.990;4.494;2022-08-03T12:17:37;32.40;44.40
16321;DHT22;8269;50.990;4.494;2022-08-03T12:20:06;32.20;44.80
16321;DHT22;8269;50.990;4.494;2022-08-03T12:22:39;32.20;45.80
16321;DHT22;8269;50.990;4.494;2022-08-03T12:25:08;32.20;45.60
16321;DHT22;8269;50.990;4.494;2022-08-03T12:27:34;32.20;45.10
16321;DHT22;8269;50.990;4.494;2022-08-03T12:30:01;32.30;45.30
16321;DHT22;8269;50.990;4.494;2022-08-03T12:32:28;32.40;45.00
16321;DHT22;8269;50.990;4.494;2022-08-03T12:34:55;32.50;45.10
16321;DHT22;8269;50.990;4.494;2022-08-03T12:37:24;32.60;45.20
16321;DHT22;8269;50.990;4.494;2022-08-03T12:42:16;32.60;44.60
16321;DHT22;8269;50.990;4.494;2022-08-03T12:44:42;32.40;44.80
16321;DHT22;8269;50.990;4.494;2022-08-03T12:47:10;32.30;45.20
16321;DHT22;8269;50.990;4.494;2022-08-03T12:49:50;32.40;45.50
16321;DHT22;8269;50.990;4.494;2022-08-03T12:52:17;32.60;44.40
16321;DHT22;8269;50.990;4.494;2022-08-03T12:54:54;32.60;44.50
16321;DHT22;8269;50.990;4.494;2022-08-03T12:57:20;32.50;44.60
16321;DHT22;8269;50.990;4.494;2022-08-03T12:59:45;32.70;44.40
16321;DHT22;8269;50.990;4.494;2022-08-03T13:02:23;32.70;44.10
16321;DHT22;8269;50.990;4.494;2022-08-03T13:04:49;32.50;44.20
16321;DHT22;8269;50.990;4.494;2022-08-03T13:07:17;32.50;44.50
16321;DHT22;8269;50.990;4.494;2022-08-03T13:09:45;32.80;44.00
16321;DHT22;8269;50.990;4.494;2022-08-03T13:12:19;33.00;43.50
16321;DHT22;8269;50.990;4.494;2022-08-03T13:14:48;33.30;43.20
16321;DHT22;8269;50.990;4.494;2022-08-03T13:17:15;33.20;42.90
16321;DHT22;8269;50.990;4.494;2022-08-03T13:19:41;32.80;43.20
16321;DHT22;8269;50.990;4.494;2022-08-03T13:24:41;32.30;43.70
16321;DHT22;8269;50.990;4.494;2022-08-03T13:27:07;32.50;44.40
16321;DHT22;8269;50.990;4.494;2022-08-03T13:29:33;32.70;44.30
16321;DHT22;8269;50.990;4.494;2022-08-03T13:32:00;32.90;43.90
16321;DHT22;8269;50.990;4.494;2022-08-03T13:34:26;33.10;43.30
16321;DHT22;8269;50.990;4.494;2022-08-03T13:36:52;33.20;42.90
16321;DHT22;8269;50.990;4.494;2022-08-03T13:39:17;33.20;42.60
16321;DHT22;8269;50.990;4.494;2022-08-03T13:41:44;33.00;42.60
16321;DHT22;8269;50.990;4.494;2022-08-03T13:44:10;32.90;42.70
16321;DHT22;8269;50.990;4.494;2022-08-03T13:46:36;32.90;43.10
16321;DHT22;8269;50.990;4.494;2022-08-03T13:49:01;33.00;42.60
16321;DHT22;8269;50.990;4.494;2022-08-03T13:51:27;32.80;43.00
16321;DHT22;8269;50.990;4.494;2022-08-03T13:53:53;32.70;43.50
16321;DHT22;8269;50.990;4.494;2022-08-03T13:56:18;32.70;43.40
16321;DHT22;8269;50.990;4.494;2022-08-03T13:58:44;32.70;43.00
16321;DHT22;8269;50.990;4.494;2022-08-03T14:01:10;32.70;42.60
16321;DHT22;8269;50.990;4.494;2022-08-03T14:03:36;32.50;42.80
16321;DHT22;8269;50.990;4.494;2022-08-03T14:06:01;32.60;42.80
16321;DHT22;8269;50.990;4.494;2022-08-03T14:08:27;32.60;43.00
16321;DHT22;8269;50.990;4.494;2022-08-03T14:10:53;32.70;43.10
16321;DHT22;8269;50.990;4.494;2022-08-03T14:13:18;32.80;43.20
16321;DHT22;8269;50.990;4.494;2022-08-03T14:15:45;33.00;42.00
16321;DHT22;8269;50.990;4.494;2022-08-03T14:18:11;33.00;42.70
16321;DHT22;8269;50.990;4.494;2022-08-03T14:20:36;33.10;42.10
16321;DHT22;8269;50.990;4.494;2022-08-03T14:23:03;33.10;42.50
16321;DHT22;8269;50.990;4.494;2022-08-03T14:25:29;33.30;42.20
16321;DHT22;8269;50.990;4.494;2022-08-03T14:27:56;33.30;41.20
16321;DHT22;8269;50.990;4.494;2022-08-03T14:30:21;33.30;41.80
16321;DHT22;8269;50.990;4.494;2022-08-03T14:32:47;33.30;41.50
16321;DHT22;8269;50.990;4.494;2022-08-03T14:35:13;33.30;41.30
16321;DHT22;8269;50.990;4.494;2022-08-03T14:37:38;33.20;40.50
16321;DHT22;8269;50.990;4.494;2022-08-03T14:40:05;33.20;40.80
16321;DHT22;8269;50.990;4.494;2022-08-03T14:42:30;33.20;41.10
16321;DHT22;8269;50.990;4.494;2022-08-03T14:44:56;33.20;41.30
16321;DHT22;8269;50.990;4.494;2022-08-03T14:47:22;33.20;40.70
16321;DHT22;8269;50.990;4.494;2022-08-03T14:49:48;33.10;40.60
16321;DHT22;8269;50.990;4.494;2022-08-03T14:52:13;33.10;40.80
16321;DHT22;8269;50.990;4.494;2022-08-03T14:54:39;33.00;41.30
16321;DHT22;8269;50.990;4.494;2022-08-03T14:57:05;32.90;40.60
16321;DHT22;8269;50.990;4.494;2022-08-03T14:59:30;32.70;41.10
16321;DHT22;8269;50.990;4.494;2022-08-03T15:01:56;32.50;41.90
16321;DHT22;8269;50.990;4.494;2022-08-03T15:04:22;32.60;41.70
16321;DHT22;8269;50.990;4.494;2022-08-03T15:06:47;32.70;41.50
16321;DHT22;8269;50.990;4.494;2022-08-03T15:09:13;32.80;41.10
16321;DHT22;8269;50.990;4.494;2022-08-03T15:11:39;32.90;41.90
16321;DHT22;8269;50.990;4.494;2022-08-03T15:14:04;33.00;41.30
16321;DHT22;8269;50.990;4.494;2022-08-03T15:16:30;33.10;40.80
16321;DHT22;8269;50.990;4.494;2022-08-03T15:18:56;33.10;40.70
16321;DHT22;8269;50.990;4.494;2022-08-03T15:21:22;33.00;40.50
16321;DHT22;8269;50.990;4.494;2022-08-03T15:23:50;33.00;40.50
16321;DHT22;8269;50.990;4.494;2022-08-03T15:26:17;32.90;40.90
16321;DHT22;8269;50.990;4.494;2022-08-03T15:28:42;32.90;40.80
16321;DHT22;8269;50.990;4.494;2022-08-03T15:31:08;33.00;41.00
16321;DHT22;8269;50.990;4.494;2022-08-03T15:33:33;33.10;41.50
16321;DHT22;8269;50.990;4.494;2022-08-03T15:35:59;33.20;41.10
16321;DHT22;8269;50.990;4.494;2022-08-03T15:38:25;33.30;40.90
16321;DHT22;8269;50.990;4.494;2022-08-03T15:40:50;33.20;41.20
16321;DHT22;8269;50.990;4.494;2022-08-03T15:43:20;33.10;40.20
16321;DHT22;8269;50.990;4.494;2022-08-03T15:45:46;32.90;40.60
16321;DHT22;8269;50.990;4.494;2022-08-03T15:48:11;32.90;41.10
16321;DHT22;8269;50.990;4.494;2022-08-03T15:50:37;33.00;40.80
16321;DHT22;8269;50.990;4.494;2022-08-03T15:53:03;33.10;40.70
16321;DHT22;8269;50.990;4.494;2022-08-03T15:55:29;32.90;40.70
16321;DHT22;8269;50.990;4.494;2022-08-03T15:57:56;32.90;41.10
16321;DHT22;8269;50.990;4.494;2022-08-03T16:00:22;33.00;41.00
16321;DHT22;8269;50.990;4.494;2022-08-03T16:02:47;33.10;40.90
16321;DHT22;8269;50.990;4.494;2022-08-03T16:05:13;33.20;41.40
16321;DHT22;8269;50.990;4.494;2022-08-03T16:07:39;33.20;40.10
16321;DHT22;8269;50.990;4.494;2022-08-03T16:10:08;33.30;40.40
16321;DHT22;8269;50.990;4.494;2022-08-03T16:12:35;33.20;40.40
16321;DHT22;8269;50.990;4.494;2022-08-03T16:15:01;33.30;40.70
16321;DHT22;8269;50.990;4.494;2022-08-03T16:17:27;33.30;40.20
16321;DHT22;8269;50.990;4.494;2022-08-03T16:19:53;33.20;40.60
16321;DHT22;8269;50.990;4.494;2022-08-03T16:22:18;33.10;40.80
16321;DHT22;8269;50.990;4.494;2022-08-03T16:24:44;33.10;40.60